Celebrity Mercury — 9HJG9 — position and weather

sailwx.info

Track history (hours):
 
Tides and Currents Weather Stations Pressure Air Temp Water Temp Dewpoint Dewpoint Depression Visibility Wind Speed Wind Dir Waves Ship Positions

Celebrity Mercury

Last reported at 2017-Mar-26 03:31 UTC. Time now 2017-Mar-30 22:48 UTC.
Position N 28°08' W 015°25'.

Length 264 m; draft 8.5 m.

Type: Passenger vessel. MMSI: 249053000.

Date/timePositionNaut miles runAvg speedWind from/ knotsBaromVisibWave heightAir tempDewpointWater temp
2017-Mar-26 03:31N 28°08' W 015°25'31 7.1
2017-Mar-25 23:08N 27°40' W 015°40'1016.0
2017-Mar-25 22:31N 27°41' W 015°51'1615.9
2017-Mar-25 21:31N 27°44' W 016°09'25 1.3
2017-Mar-25 02:04N 28°06' W 016°23'913.9
2017-Mar-25 01:27N 28°13' W 016°19'1313.9
2017-Mar-25 00:31N 28°26' W 016°15'3 0.2
2017-Mar-24 07:33N 28°29' W 016°14'6 5.5
2017-Mar-24 06:27N 28°30' W 016°08'10211.4
2017-Mar-23 21:27N 28°46' W 014°13'1212.7
2017-Mar-23 20:29N 28°47' W 013°59'1213.0
2017-Mar-23 19:33N 28°49' W 013°45'1413.6
2017-Mar-23 18:33N 28°57' W 013°32'1 0.9
2017-Mar-23 17:04N 28°58' W 013°32'0 0.0
2017-Mar-23 12:16N 28°58' W 013°32'0 0.0
2017-Mar-23 08:16N 28°58' W 013°32'0 0.0
2017-Mar-23 07:04N 28°58' W 013°32'0 0.0
2017-Mar-23 04:07N 28°58' W 013°32'0 0.0
2017-Mar-23 03:28N 28°58' W 013°32'0 0.0
2017-Mar-22 21:22N 28°58' W 013°32'0 0.0
2017-Mar-22 20:28N 28°58' W 013°32'0 0.2
2017-Mar-22 18:27N 28°57' W 013°32'7 8.0
2017-Mar-22 17:32N 28°59' W 013°24'8 7.6
2017-Mar-22 16:30N 29°02' W 013°16'9 7.8
2017-Mar-22 15:21N 29°06' W 013°06'  
2017-Mar-20 10:24N 29°08' W 012°57'1012.0
2017-Mar-20 09:34N 29°03' W 013°08'1212.0
2017-Mar-20 08:34N 28°58' W 013°21'1312.7
2017-Mar-20 07:33N 28°53' W 013°34'1313.4
2017-Mar-20 06:33N 28°48' W 013°48'1412.7
2017-Mar-20 05:28N 28°47' W 014°04'82 3.3
2017-Mar-19 04:29N 28°08' W 015°25'86 9.3
2017-Mar-18 19:17N 28°27' W 013°50'3 0.3
2017-Mar-18 07:32N 28°30' W 013°51'6 6.3
2017-Mar-18 06:33N 28°34' W 013°47'1312.9
2017-Mar-18 05:33N 28°47' W 013°47'1212.4
2017-Mar-18 04:33N 28°47' W 014°01'7712.7
2017-Mar-17 22:31N 28°40' W 015°28'2512.7
2017-Mar-17 20:34N 28°35' W 015°56'30 1.6
2017-Mar-17 02:32N 28°40' W 016°29'9 8.2
2017-Mar-17 01:27N 28°40' W 016°39'  
Track history (hours):
 
Tides and Currents Weather Stations Pressure Air Temp Water Temp Dewpoint Dewpoint Depression Visibility Wind Speed Wind Dir Waves Ship Positions

Celebrity Mercury

Last reported at 2017-Mar-26 03:31 UTC. Time now 2017-Mar-30 22:48 UTC.
Position N 28°08' W 015°25'.

Length 264 m; draft 8.5 m.

Type: Passenger vessel. MMSI: 249053000.

Date/timePositionNaut miles runAvg speedWind from/ knotsBaromVisibWave heightAir tempDewpointWater temp
2017-Mar-26 03:31N 28°08' W 015°25'31 7.1
2017-Mar-25 23:08N 27°40' W 015°40'1016.0
2017-Mar-25 22:31N 27°41' W 015°51'1615.9
2017-Mar-25 21:31N 27°44' W 016°09'25 1.3
2017-Mar-25 02:04N 28°06' W 016°23'913.9
2017-Mar-25 01:27N 28°13' W 016°19'1313.9
2017-Mar-25 00:31N 28°26' W 016°15'3 0.2
2017-Mar-24 07:33N 28°29' W 016°14'6 5.5
2017-Mar-24 06:27N 28°30' W 016°08'10211.4
2017-Mar-23 21:27N 28°46' W 014°13'1212.7
2017-Mar-23 20:29N 28°47' W 013°59'1213.0
2017-Mar-23 19:33N 28°49' W 013°45'1413.6
2017-Mar-23 18:33N 28°57' W 013°32'1 0.9
2017-Mar-23 17:04N 28°58' W 013°32'0 0.0
2017-Mar-23 12:16N 28°58' W 013°32'0 0.0
2017-Mar-23 08:16N 28°58' W 013°32'0 0.0
2017-Mar-23 07:04N 28°58' W 013°32'0 0.0
2017-Mar-23 04:07N 28°58' W 013°32'0 0.0
2017-Mar-23 03:28N 28°58' W 013°32'0 0.0
2017-Mar-22 21:22N 28°58' W 013°32'0 0.0
2017-Mar-22 20:28N 28°58' W 013°32'0 0.2
2017-Mar-22 18:27N 28°57' W 013°32'7 8.0
2017-Mar-22 17:32N 28°59' W 013°24'8 7.6
2017-Mar-22 16:30N 29°02' W 013°16'9 7.8
2017-Mar-22 15:21N 29°06' W 013°06'  
2017-Mar-20 10:24N 29°08' W 012°57'1012.0
2017-Mar-20 09:34N 29°03' W 013°08'1212.0
2017-Mar-20 08:34N 28°58' W 013°21'1312.7
2017-Mar-20 07:33N 28°53' W 013°34'1313.4
2017-Mar-20 06:33N 28°48' W 013°48'1412.7
2017-Mar-20 05:28N 28°47' W 014°04'82 3.3
2017-Mar-19 04:29N 28°08' W 015°25'86 9.3
2017-Mar-18 19:17N 28°27' W 013°50'3 0.3
2017-Mar-18 07:32N 28°30' W 013°51'6 6.3
2017-Mar-18 06:33N 28°34' W 013°47'1312.9
2017-Mar-18 05:33N 28°47' W 013°47'1212.4
2017-Mar-18 04:33N 28°47' W 014°01'7712.7
2017-Mar-17 22:31N 28°40' W 015°28'2512.7
2017-Mar-17 20:34N 28°35' W 015°56'30 1.6
2017-Mar-17 02:32N 28°40' W 016°29'9 8.2
2017-Mar-17 01:27N 28°40' W 016°39'  

Dump ship's entire track history